CheckWX is a tool to help pilots better visualize weather data.  It is not intended as a substitute for an official pre-flight weather briefing.

08:37:12 UTC

KOZW METAR
Livingston County Spencer J Hardy Airport
Howell, Michigan, USA
Current

21 mins ago

KOZW 220816Z AUTO 00000KT 7SM CLR M05/M08 A3035 RMK AO2 T10551077
Observed
Feb-22 @ 08:16 UTC
Visibility
7 SM
Flight Rules
VFR
Cloud Levels
  • Clear skies
Temperature
-6°C / 21°F
Dewpoint
-8°C / 18°F
Humidity
86%
Altimeter
30.35" Hg
Pressure
1027.82 hPa
Previous

22 mins ago

KOZW 220815Z AUTO 27003KT 7SM CLR M05/M07 A3035 RMK AO2 T10531075
Observed
Feb-22 @ 08:15 UTC
Wind
  • 270° at 3 KTS
Visibility
7 SM
Flight Rules
VFR
Cloud Levels
  • Clear skies
Temperature
-5°C / 23°F
Dewpoint
-8°C / 18°F
Humidity
80%
Altimeter
30.35" Hg
Pressure
1027.82 hPa
Previous

41 mins ago

KOZW 220756Z AUTO 00000KT 7SM CLR M05/M08 A3034 RMK AO2 T10541079
Observed
Feb-22 @ 07:56 UTC
Visibility
7 SM
Flight Rules
VFR
Cloud Levels
  • Clear skies
Temperature
-5°C / 23°F
Dewpoint
-8°C / 18°F
Humidity
80%
Altimeter
30.34" Hg
Pressure
1027.42 hPa